Time;durP1;ratioP1;P1;durP2;ratioP2;P2;SDS_P1;SDS_P2;PMS_P1;PMS_P2;Temp;Humidity;BMP_temperature;BMP_pressure;BME280_temperature;BME280_humidity;BME280_pressure;Samples;Min_cycle;Max_cycle;Signal;HPM_P1;HPM_P2
2023/04/01 00:00:58;;;;;;;13.75;12.02;;;10.00;99.90;;;;;;5088633;27;20074;-73
2023/04/01 00:03:26;;;;;;;13.25;11.85;;;10.00;99.90;;;;;;5074119;28;20063;-73
2023/04/01 00:05:53;;;;;;;13.68;12.00;;;10.00;99.90;;;;;;5039155;28;20502;-72
2023/04/01 00:08:19;;;;;;;14.15;12.02;;;10.00;99.90;;;;;;5074783;28;20122;-72
2023/04/01 00:10:45;;;;;;;14.02;12.48;;;10.00;99.90;;;;;;5056515;28;20852;-72
2023/04/01 00:13:11;;;;;;;14.70;12.15;;;10.00;99.90;;;;;;5076985;28;20047;-72
2023/04/01 00:15:37;;;;;;;13.65;12.25;;;10.00;99.90;;;;;;5040617;28;20059;-73
2023/04/01 00:18:03;;;;;;;13.23;11.88;;;10.00;99.90;;;;;;5075007;28;20143;-73
2023/04/01 00:20:29;;;;;;;12.57;11.27;;;10.00;99.90;;;;;;5041435;28;20044;-72
2023/04/01 00:22:56;;;;;;;12.80;11.48;;;10.00;99.90;;;;;;5057974;28;20112;-72
2023/04/01 00:25:22;;;;;;;16.63;12.52;;;10.00;99.90;;;;;;5040871;28;21397;-72
2023/04/01 00:27:49;;;;;;;14.30;12.15;;;10.00;99.90;;;;;;5072128;28;20052;-72
2023/04/01 00:30:15;;;;;;;13.70;11.88;;;10.00;99.90;;;;;;5058729;28;20346;-72
2023/04/01 00:32:41;;;;;;;13.13;11.60;;;10.00;99.90;;;;;;5073199;28;20058;-72
2023/04/01 00:35:08;;;;;;;12.55;10.88;;;10.00;99.90;;;;;;5056898;28;20131;-72
2023/04/01 00:37:36;;;;;;;13.10;11.32;;;10.00;99.90;;;;;;5059081;28;20058;-73
2023/04/01 00:40:05;;;;;;;12.00;10.80;;;10.00;99.90;;;;;;5071926;28;20619;-73
2023/04/01 00:42:31;;;;;;;11.65;10.45;;;10.00;99.90;;;;;;5073158;28;20047;-73
2023/04/01 00:44:59;;;;;;;13.48;11.55;;;10.00;99.90;;;;;;5090300;27;20054;-73
2023/04/01 00:47:26;;;;;;;12.35;10.18;;;10.00;99.90;;;;;;5074666;27;20051;-72
2023/04/01 00:49:54;;;;;;;11.35;9.60;;;10.00;99.90;;;;;;5058074;28;20582;-73
2023/04/01 00:52:24;;;;;;;12.23;10.10;;;9.90;99.90;;;;;;5058828;28;20120;-73
2023/04/01 00:54:55;;;;;;;11.63;9.38;;;10.00;99.90;;;;;;5056369;28;20660;-73
2023/04/01 00:57:36;;;;;;;12.15;10.30;;;9.90;99.90;;;;;;5071975;28;20074;-72
2023/04/01 01:00:07;;;;;;;12.82;9.43;;;9.90;99.90;;;;;;5057969;28;20204;-73
2023/04/01 01:02:34;;;;;;;10.90;8.40;;;9.90;99.90;;;;;;5068426;28;20062;-72
2023/04/01 01:05:00;;;;;;;10.82;9.27;;;9.90;99.90;;;;;;5058547;28;20054;-73
2023/04/01 01:07:41;;;;;;;10.02;7.60;;;9.90;99.90;;;;;;5073232;28;20558;-73
2023/04/01 01:10:17;;;;;;;10.27;7.95;;;9.90;99.90;;;;;;5058289;28;20062;-72
2023/04/01 01:12:49;;;;;;;8.63;6.40;;;9.80;99.90;;;;;;5065906;28;20051;-72
2023/04/01 01:15:24;;;;;;;8.90;7.72;;;9.90;99.90;;;;;;5087951;27;20044;-72
2023/04/01 01:18:11;;;;;;;6.05;5.15;;;9.80;99.90;;;;;;5055461;28;20118;-72
2023/04/01 01:21:02;;;;;;;4.80;3.90;;;9.80;99.90;;;;;;5086114;27;20442;-72
2023/04/01 01:23:50;;;;;;;5.45;3.60;;;9.80;99.90;;;;;;5071801;28;20131;-73
2023/04/01 01:26:18;;;;;;;4.97;3.25;;;9.80;99.90;;;;;;5089034;27;20043;-73
2023/04/01 01:28:54;;;;;;;3.65;2.47;;;9.80;99.90;;;;;;5068489;28;20730;-73
2023/04/01 01:32:05;;;;;;;3.83;2.40;;;9.80;99.90;;;;;;5071901;28;20273;-72
2023/04/01 01:35:03;;;;;;;3.92;2.20;;;9.80;99.90;;;;;;5069415;28;20425;-72
2023/04/01 01:37:29;;;;;;;3.25;2.05;;;9.80;99.90;;;;;;5070279;28;20048;-72
2023/04/01 01:40:06;;;;;;;4.28;2.15;;;9.70;99.90;;;;;;5069172;28;20450;-72
2023/04/01 01:42:36;;;;;;;4.43;1.92;;;9.70;99.90;;;;;;5052025;28;20765;-73
2023/04/01 01:45:04;;;;;;;3.83;2.40;;;9.70;99.90;;;;;;5086191;27;20070;-72
2023/04/01 01:47:31;;;;;;;3.92;2.80;;;9.70;99.90;;;;;;5069863;28;20063;-73
2023/04/01 01:49:57;;;;;;;6.03;3.15;;;9.70;99.90;;;;;;5055546;28;20044;-72
2023/04/01 01:52:23;;;;;;;5.35;4.10;;;9.70;99.90;;;;;;5028107;28;20823;-73
2023/04/01 01:54:50;;;;;;;6.68;4.32;;;9.80;99.90;;;;;;5075664;28;20040;-73
2023/04/01 01:57:19;;;;;;;7.30;5.30;;;9.80;99.90;;;;;;5070894;28;20036;-75
2023/04/01 01:59:47;;;;;;;8.23;5.13;;;9.80;99.90;;;;;;5058954;28;20054;-73
2023/04/01 02:02:20;;;;;;;7.10;5.38;;;9.80;99.90;;;;;;5070068;28;20163;-74
2023/04/01 02:04:47;;;;;;;8.32;6.63;;;9.80;99.90;;;;;;5058302;28;20047;-74
2023/04/01 02:07:20;;;;;;;8.32;7.03;;;9.80;99.90;;;;;;5035143;28;20058;-73
2023/04/01 02:09:46;;;;;;;9.68;7.20;;;9.80;99.90;;;;;;5054645;28;20055;-74
2023/04/01 02:12:16;;;;;;;8.23;7.22;;;9.80;99.90;;;;;;5057289;28;20048;-74
2023/04/01 02:14:57;;;;;;;;;;;9.80;99.90;;;;;;5074806;28;20086;-74
2023/04/01 02:17:34;;;;;;;10.77;8.73;;;9.80;99.90;;;;;;5060050;28;20452;-74
2023/04/01 02:20:07;;;;;;;9.60;8.38;;;9.80;99.90;;;;;;5058278;28;20945;-73
2023/04/01 02:22:41;;;;;;;10.90;8.55;;;9.80;99.90;;;;;;5076630;28;20070;-73
2023/04/01 02:25:26;;;;;;;11.40;8.43;;;9.80;99.90;;;;;;5072809;28;20051;-73
2023/04/01 02:27:52;;;;;;;11.00;8.65;;;9.90;99.90;;;;;;5079171;28;20036;-73
2023/04/01 02:30:18;;;;;;;10.30;8.93;;;9.90;99.90;;;;;;5045770;28;20043;-73
2023/04/01 02:32:45;;;;;;;11.63;9.68;;;9.90;99.90;;;;;;5060800;28;20095;-72
2023/04/01 02:35:13;;;;;;;12.23;10.68;;;9.80;99.90;;;;;;5082484;28;20406;-73
2023/04/01 02:37:43;;;;;;;13.15;9.73;;;9.90;99.90;;;;;;5071420;28;20048;-73
2023/04/01 02:40:14;;;;;;;12.48;10.00;;;9.80;99.90;;;;;;5048089;28;20068;-73
2023/04/01 02:42:40;;;;;;;13.40;10.32;;;9.80;99.90;;;;;;5075029;28;20050;-72
2023/04/01 02:45:12;;;;;;;11.23;10.07;;;9.80;99.90;;;;;;5074087;28;20043;-72
2023/04/01 02:47:38;;;;;;;13.15;9.77;;;9.90;99.90;;;;;;5059589;28;20059;-72
2023/04/01 02:50:05;;;;;;;13.55;10.98;;;9.80;99.90;;;;;;5079708;28;20035;-72
2023/04/01 02:52:31;;;;;;;12.80;11.20;;;9.90;99.90;;;;;;5055374;28;20127;-72
2023/04/01 02:54:58;;;;;;;13.90;11.18;;;9.90;99.90;;;;;;5060111;28;20058;-73
2023/04/01 02:57:26;;;;;;;15.20;11.93;;;9.80;99.90;;;;;;5058527;28;20044;-74
2023/04/01 02:59:52;;;;;;;14.13;11.50;;;9.80;99.90;;;;;;5051997;28;20050;-73
2023/04/01 03:02:18;;;;;;;15.25;11.48;;;9.80;99.90;;;;;;5058256;28;20052;-73
2023/04/01 03:04:44;;;;;;;13.57;11.25;;;9.80;99.90;;;;;;5061510;28;20060;-72
2023/04/01 03:07:10;;;;;;;14.57;11.80;;;9.80;99.90;;;;;;5075606;28;20528;-73
2023/04/01 03:09:37;;;;;;;14.60;11.20;;;9.80;99.90;;;;;;5079138;28;20154;-72
2023/04/01 03:12:03;;;;;;;12.90;11.20;;;9.90;99.90;;;;;;5075536;28;20055;-73
2023/04/01 03:14:30;;;;;;;13.75;10.88;;;9.90;99.90;;;;;;5059726;28;20048;-73
2023/04/01 03:16:56;;;;;;;13.50;10.75;;;9.80;99.90;;;;;;5062548;28;20043;-73
2023/04/01 03:19:21;;;;;;;14.43;11.63;;;9.90;99.90;;;;;;5074599;27;20040;-73
2023/04/01 03:21:47;;;;;;;14.95;11.40;;;9.90;99.90;;;;;;5055094;28;20055;-73
2023/04/01 03:24:13;;;;;;;13.93;11.05;;;9.90;99.90;;;;;;5077706;28;20051;-72
2023/04/01 03:26:39;;;;;;;15.73;11.45;;;9.90;99.90;;;;;;5042925;28;20058;-72
2023/04/01 03:29:05;;;;;;;15.57;11.93;;;9.90;99.90;;;;;;5060661;28;20497;-72
2023/04/01 03:31:31;;;;;;;14.95;11.27;;;9.90;99.90;;;;;;5059312;28;20054;-74
2023/04/01 03:33:56;;;;;;;14.25;10.73;;;9.90;99.90;;;;;;5044367;28;20051;-73
2023/04/01 03:36:22;;;;;;;17.50;11.68;;;9.80;99.90;;;;;;5075651;28;20067;-73
2023/04/01 03:38:48;;;;;;;16.35;11.55;;;9.80;99.90;;;;;;5077205;28;20031;-73
2023/04/01 03:41:16;;;;;;;16.45;11.52;;;9.80;99.90;;;;;;5076824;28;20063;-73
2023/04/01 03:43:42;;;;;;;17.10;11.50;;;9.80;99.90;;;;;;5058753;28;20048;-73
2023/04/01 03:46:08;;;;;;;17.85;12.27;;;9.90;99.90;;;;;;5075895;28;21582;-73
2023/04/01 03:48:34;;;;;;;14.57;11.23;;;9.90;99.90;;;;;;5059044;28;20498;-73
2023/04/01 03:51:00;;;;;;;17.00;13.13;;;9.80;99.90;;;;;;5077030;28;20055;-72
2023/04/01 03:53:26;;;;;;;19.60;12.07;;;9.80;99.90;;;;;;5062919;28;20542;-72
2023/04/01 03:55:53;;;;;;;15.00;11.63;;;9.80;99.90;;;;;;5041176;28;21663;-72
2023/04/01 03:58:19;;;;;;;16.88;11.77;;;9.80;99.90;;;;;;5060704;28;20092;-72
2023/04/01 04:00:45;;;;;;;16.38;11.57;;;9.80;99.90;;;;;;5037357;28;20105;-73
2023/04/01 04:03:11;;;;;;;17.02;11.52;;;9.80;99.90;;;;;;5050725;28;20056;-72
2023/04/01 04:05:49;;;;;;;16.98;12.13;;;9.80;99.90;;;;;;5073422;28;20055;-72
2023/04/01 04:08:16;;;;;;;17.02;12.15;;;9.80;99.90;;;;;;5079493;28;20139;-73
2023/04/01 04:10:42;;;;;;;19.08;12.43;;;9.80;99.90;;;;;;5074869;28;20051;-73
2023/04/01 04:13:08;;;;;;;17.13;11.52;;;9.80;99.90;;;;;;5040943;28;20146;-73
2023/04/01 04:15:34;;;;;;;17.55;12.40;;;9.80;99.90;;;;;;5077447;28;20063;-73
2023/04/01 04:18:00;;;;;;;19.08;12.57;;;9.80;99.90;;;;;;5061000;28;20065;-74
2023/04/01 04:20:26;;;;;;;19.88;11.77;;;9.80;99.90;;;;;;5078649;28;20152;-73
2023/04/01 04:22:52;;;;;;;18.10;11.82;;;9.80;99.90;;;;;;5074668;28;20044;-74
2023/04/01 04:25:18;;;;;;;19.88;11.88;;;9.80;99.90;;;;;;5059943;28;20058;-74
2023/04/01 04:27:43;;;;;;;14.63;11.07;;;9.80;99.90;;;;;;5074429;28;20127;-72
2023/04/01 04:30:10;;;;;;;18.13;12.75;;;9.80;99.90;;;;;;5042872;28;20047;-72
2023/04/01 04:32:35;;;;;;;19.73;12.43;;;9.80;99.90;;;;;;5075892;28;21195;-72
2023/04/01 04:35:01;;;;;;;17.05;11.52;;;9.80;99.90;;;;;;5076416;28;20044;-71
2023/04/01 04:37:27;;;;;;;18.38;12.38;;;9.80;99.90;;;;;;5058572;28;20143;-72
2023/04/01 04:39:53;;;;;;;18.73;12.02;;;9.80;99.90;;;;;;5075674;28;20047;-71
2023/04/01 04:42:22;;;;;;;18.88;11.18;;;9.80;99.90;;;;;;5037738;28;20043;-73
2023/04/01 04:44:48;;;;;;;17.45;11.68;;;9.70;99.90;;;;;;5059002;28;20035;-72
2023/04/01 04:47:14;;;;;;;15.43;11.00;;;9.80;99.90;;;;;;5059214;28;20044;-73
2023/04/01 04:49:40;;;;;;;15.90;11.05;;;9.80;99.90;;;;;;5072173;28;20033;-72
2023/04/01 04:52:06;;;;;;;16.20;10.95;;;9.80;99.90;;;;;;5092606;27;20061;-73
2023/04/01 04:54:32;;;;;;;14.38;10.85;;;9.80;99.90;;;;;;5055855;28;20032;-72
2023/04/01 04:56:57;;;;;;;15.82;10.80;;;9.80;99.90;;;;;;5060877;28;20050;-73
2023/04/01 04:59:23;;;;;;;16.55;10.73;;;9.80;99.90;;;;;;5057884;28;20086;-73
2023/04/01 05:01:49;;;;;;;14.63;9.63;;;9.80;99.90;;;;;;5057959;28;20413;-73
2023/04/01 05:04:15;;;;;;;13.50;9.57;;;9.80;99.90;;;;;;5074495;28;20101;-73
2023/04/01 05:06:43;;;;;;;15.20;9.85;;;9.80;99.90;;;;;;5040046;28;20041;-74
2023/04/01 05:09:12;;;;;;;14.50;9.77;;;9.80;99.90;;;;;;5061895;28;20506;-73
2023/04/01 05:11:37;;;;;;;13.95;9.90;;;9.80;99.90;;;;;;5035858;28;20046;-73
2023/04/01 05:14:03;;;;;;;14.27;10.38;;;9.80;99.90;;;;;;5055840;28;20036;-74
2023/04/01 05:16:32;;;;;;;14.60;10.32;;;9.80;99.90;;;;;;5074428;28;20074;-73
2023/04/01 05:18:58;;;;;;;15.30;10.13;;;9.80;99.90;;;;;;5055585;28;20150;-73
2023/04/01 05:21:24;;;;;;;15.52;10.73;;;9.80;99.90;;;;;;5074200;28;20060;-73
2023/04/01 05:23:50;;;;;;;17.15;11.57;;;9.80;99.90;;;;;;5056331;28;20295;-73
2023/04/01 05:26:19;;;;;;;17.30;12.20;;;9.80;99.90;;;;;;5056696;28;20116;-73
2023/04/01 05:28:45;;;;;;;18.48;11.98;;;9.80;99.90;;;;;;5075560;28;22113;-73
2023/04/01 05:31:11;;;;;;;15.77;11.73;;;9.80;99.90;;;;;;5036144;28;20040;-74
2023/04/01 05:33:36;;;;;;;16.45;11.85;;;9.80;99.90;;;;;;5060428;28;20062;-73
2023/04/01 05:36:20;;;;;;;18.88;13.15;;;9.80;99.90;;;;;;5041750;28;20506;-73
2023/04/01 05:38:50;;;;;;;19.10;13.48;;;9.90;99.90;;;;;;5076317;28;20477;-73
2023/04/01 05:41:16;;;;;;;18.08;13.50;;;9.80;99.90;;;;;;5073500;28;20183;-72
2023/04/01 05:43:42;;;;;;;18.75;13.98;;;9.80;99.90;;;;;;5076032;28;20505;-72
2023/04/01 05:46:08;;;;;;;18.27;13.20;;;9.90;99.90;;;;;;5054848;28;20079;-73
2023/04/01 05:48:34;;;;;;;19.00;13.60;;;9.80;99.90;;;;;;5075978;28;20170;-72
2023/04/01 05:51:01;;;;;;;22.13;14.00;;;9.80;99.90;;;;;;5056789;28;20047;-72
2023/04/01 05:53:27;;;;;;;17.73;13.82;;;9.90;99.90;;;;;;5074795;28;20056;-71
2023/04/01 05:55:52;;;;;;;20.13;14.38;;;9.90;99.90;;;;;;5055852;28;20486;-73
2023/04/01 05:58:18;;;;;;;20.35;14.30;;;9.90;99.90;;;;;;5061175;28;20050;-72
2023/04/01 06:00:44;;;;;;;19.55;14.30;;;9.90;99.90;;;;;;5072819;28;20058;-73
2023/04/01 06:03:10;;;;;;;19.98;15.07;;;9.90;99.90;;;;;;5058440;28;20049;-74
2023/04/01 06:05:43;;;;;;;20.63;15.80;;;9.90;99.90;;;;;;5072816;28;20089;-73
2023/04/01 06:08:18;;;;;;;19.02;14.60;;;9.90;99.90;;;;;;5073564;28;20077;-74
2023/04/01 06:10:52;;;;;;;18.75;13.55;;;9.90;99.90;;;;;;5073012;28;20060;-74
2023/04/01 06:13:39;;;;;;;17.45;13.95;;;9.90;99.90;;;;;;5088404;27;20105;-73
2023/04/01 06:16:27;;;;;;;17.83;14.13;;;10.00;99.90;;;;;;5077080;28;20048;-73
2023/04/01 06:19:24;;;;;;;16.40;12.98;;;10.00;99.90;;;;;;5057489;28;20047;-74
2023/04/01 06:22:26;;;;;;;15.60;12.93;;;10.00;99.90;;;;;;5051839;28;20056;-74
2023/04/01 06:25:28;;;;;;;16.92;13.48;;;10.00;99.90;;;;;;5070935;28;20777;-73
2023/04/01 06:28:16;;;;;;;14.35;11.60;;;10.00;99.90;;;;;;5055822;28;20043;-73
2023/04/01 06:30:55;;;;;;;14.20;10.98;;;10.00;99.90;;;;;;5054736;28;20180;-72
2023/04/01 06:33:37;;;;;;;13.87;10.73;;;10.00;99.90;;;;;;5068748;28;20072;-73
2023/04/01 06:36:09;;;;;;;10.38;8.65;;;10.00;99.90;;;;;;5089174;27;20063;-72
2023/04/01 06:39:03;;;;;;;11.52;9.48;;;10.00;99.90;;;;;;5067996;28;20059;-72
2023/04/01 06:42:09;;;;;;;14.15;10.55;;;10.00;99.90;;;;;;5054263;28;20115;-72
2023/04/01 06:44:57;;;;;;;10.70;8.60;;;10.00;99.90;;;;;;5055815;28;20043;-73
2023/04/01 06:47:41;;;;;;;10.40;8.43;;;10.00;99.90;;;;;;5054560;28;20134;-72
2023/04/01 06:50:45;;;;;;;9.25;7.53;;;10.00;99.90;;;;;;5074442;28;20044;-73
2023/04/01 06:53:14;;;;;;;10.38;8.07;;;10.00;99.90;;;;;;5049872;28;20048;-73
2023/04/01 06:55:59;;;;;;;11.05;7.72;;;10.10;99.90;;;;;;5069012;28;20100;-73
2023/04/01 06:58:31;;;;;;;9.85;8.02;;;10.00;99.90;;;;;;5071417;28;20090;-72
2023/04/01 07:01:01;;;;;;;11.05;8.52;;;10.00;99.90;;;;;;5053290;28;20585;-72
2023/04/01 07:03:43;;;;;;;11.90;9.00;;;10.00;99.90;;;;;;5070484;28;20417;-72
2023/04/01 07:06:34;;;;;;;13.00;9.95;;;10.00;99.90;;;;;;5087615;28;20051;-72
2023/04/01 07:09:05;;;;;;;13.95;10.23;;;10.10;99.90;;;;;;5044854;28;20055;-73
2023/04/01 07:11:34;;;;;;;12.82;10.40;;;10.00;99.90;;;;;;5072193;28;20154;-73
2023/04/01 07:14:09;;;;;;;15.25;11.30;;;10.00;99.90;;;;;;5072098;28;20051;-72
2023/04/01 07:17:00;;;;;;;15.73;11.48;;;10.00;99.90;;;;;;5069529;28;20062;-72
2023/04/01 07:19:42;;;;;;;17.25;12.52;;;9.90;99.90;;;;;;5052367;28;20055;-73
2023/04/01 07:22:30;;;;;;;18.48;14.25;;;9.90;99.90;;;;;;5083675;28;20132;-73
2023/04/01 07:25:01;;;;;;;22.15;14.52;;;10.00;99.90;;;;;;5054907;28;20104;-72
2023/04/01 07:27:27;;;;;;;19.63;13.68;;;10.00;99.90;;;;;;5069366;28;20133;-73
2023/04/01 07:29:56;;;;;;;17.75;13.70;;;10.00;99.90;;;;;;5050293;28;20530;-72
2023/04/01 07:32:48;;;;;;;18.60;14.52;;;10.10;99.90;;;;;;5051862;28;20070;-73
2023/04/01 07:35:22;;;;;;;16.67;13.73;;;10.10;99.90;;;;;;5054143;28;20083;-73
2023/04/01 07:38:09;;;;;;;19.50;15.30;;;10.10;99.90;;;;;;5071368;28;20592;-73
2023/04/01 07:40:49;;;;;;;16.98;14.65;;;10.10;99.90;;;;;;5055413;28;20044;-72
2023/04/01 07:43:36;;;;;;;19.75;15.15;;;10.20;99.90;;;;;;5059771;28;20066;-70
2023/04/01 07:46:20;;;;;;;17.48;14.68;;;10.30;99.90;;;;;;5071369;28;20051;-72
2023/04/01 07:48:49;;;;;;;18.75;15.82;;;10.30;99.90;;;;;;5093709;27;20234;-72
2023/04/01 07:51:38;;;;;;;18.05;15.65;;;10.40;99.90;;;;;;5056102;28;20138;-73
2023/04/01 07:54:39;;;;;;;18.30;15.77;;;10.40;99.90;;;;;;5070724;28;20055;-72
2023/04/01 07:57:12;;;;;;;20.13;16.90;;;10.50;99.90;;;;;;5050723;28;20129;-73
2023/04/01 07:59:51;;;;;;;17.02;15.23;;;10.60;99.90;;;;;;5070086;28;20120;-74
2023/04/01 08:02:39;;;;;;;19.10;16.83;;;10.60;99.90;;;;;;5076031;28;20157;-74
2023/04/01 08:05:05;;;;;;;17.02;15.23;;;10.70;99.90;;;;;;5065899;28;20043;-73
2023/04/01 08:07:35;;;;;;;17.58;15.68;;;10.70;99.90;;;;;;5071944;28;20170;-73
2023/04/01 08:10:09;;;;;;;19.30;17.30;;;10.70;99.90;;;;;;5068557;28;20040;-73
2023/04/01 08:12:58;;;;;;;17.85;15.73;;;10.70;99.90;;;;;;5052394;28;20086;-73
2023/04/01 08:15:32;;;;;;;17.17;15.45;;;10.80;99.90;;;;;;5052970;28;20104;-73
2023/04/01 08:18:39;;;;;;;17.05;15.25;;;10.80;99.90;;;;;;5070582;28;20039;-73
2023/04/01 08:21:21;;;;;;;15.98;14.27;;;10.80;99.90;;;;;;5053942;28;20071;-73
2023/04/01 08:23:57;;;;;;;16.05;14.35;;;10.90;99.90;;;;;;5053807;28;20119;-74
2023/04/01 08:26:42;;;;;;;17.38;15.15;;;11.00;99.90;;;;;;5037288;28;20204;-73
2023/04/01 08:29:14;;;;;;;16.23;14.63;;;11.00;99.90;;;;;;5067726;28;20048;-73
2023/04/01 08:32:05;;;;;;;15.65;13.95;;;11.00;99.90;;;;;;5067110;28;20058;-73
2023/04/01 08:34:37;;;;;;;15.73;14.13;;;11.10;99.90;;;;;;5078595;28;20130;-73
2023/04/01 08:37:17;;;;;;;15.50;13.90;;;11.00;99.90;;;;;;5091818;27;20157;-73
2023/04/01 08:39:54;;;;;;;18.38;15.88;;;10.90;99.90;;;;;;5060700;28;20074;-73
2023/04/01 08:42:31;;;;;;;17.40;14.35;;;10.90;99.90;;;;;;5078153;28;20542;-73
2023/04/01 08:45:27;;;;;;;14.80;12.77;;;11.00;99.90;;;;;;5064048;28;20059;-73
2023/04/01 08:48:08;;;;;;;12.32;10.90;;;11.10;99.90;;;;;;5074715;28;20092;-73
2023/04/01 08:50:48;;;;;;;11.57;10.30;;;11.10;99.90;;;;;;5080212;28;20226;-73
2023/04/01 08:53:52;;;;;;;10.93;9.48;;;11.10;99.90;;;;;;5089559;27;20047;-73
2023/04/01 08:56:25;;;;;;;10.98;9.88;;;11.10;99.90;;;;;;5093938;27;20047;-73
2023/04/01 08:59:15;;;;;;;10.85;9.85;;;11.10;99.90;;;;;;5077217;28;20039;-73
2023/04/01 09:02:05;;;;;;;11.27;9.55;;;11.10;99.90;;;;;;5082461;28;20120;-73
2023/04/01 09:05:05;;;;;;;12.52;9.88;;;11.10;99.90;;;;;;5095480;27;20056;-73
2023/04/01 09:07:56;;;;;;;12.13;9.68;;;11.00;99.90;;;;;;5061646;28;20047;-73
2023/04/01 09:10:36;;;;;;;13.27;10.75;;;11.00;99.90;;;;;;5092609;27;20047;-73
2023/04/01 09:13:32;;;;;;;13.60;11.30;;;11.00;99.90;;;;;;5060407;28;20558;-72
2023/04/01 09:16:24;;;;;;;14.60;11.95;;;11.00;99.90;;;;;;5090117;27;20135;-72
2023/04/01 09:19:20;;;;;;;12.27;10.98;;;11.00;99.90;;;;;;5081824;28;20323;-72
2023/04/01 09:22:11;;;;;;;13.25;11.32;;;11.00;99.90;;;;;;5082618;28;20044;-73
2023/04/01 09:25:06;;;;;;;14.57;11.80;;;11.10;99.90;;;;;;5057518;28;20056;-73
2023/04/01 09:27:47;;;;;;;13.23;11.82;;;11.10;99.90;;;;;;5076942;28;20143;-72
2023/04/01 09:30:53;;;;;;;13.40;11.75;;;11.10;99.90;;;;;;5075906;28;20047;-72
2023/04/01 09:33:43;;;;;;;14.70;12.52;;;11.10;99.90;;;;;;5079469;28;20043;-72
2023/04/01 09:36:38;;;;;;;14.70;13.20;;;11.20;99.90;;;;;;5077375;28;20711;-73
2023/04/01 09:39:24;;;;;;;15.90;14.10;;;11.20;99.90;;;;;;5080678;28;20058;-73
2023/04/01 09:42:14;;;;;;;16.73;15.00;;;11.20;99.90;;;;;;5078640;28;20212;-73
2023/04/01 09:44:58;;;;;;;17.35;15.63;;;11.20;99.90;;;;;;5074164;28;20048;-73
2023/04/01 09:47:27;;;;;;;16.85;15.18;;;11.20;99.90;;;;;;5080683;28;20908;-73
2023/04/01 09:50:18;;;;;;;18.10;16.20;;;11.20;99.90;;;;;;5063359;28;20063;-72
2023/04/01 09:52:47;;;;;;;19.23;17.33;;;11.20;99.90;;;;;;5061235;28;20124;-73
2023/04/01 09:55:31;;;;;;;17.58;15.77;;;11.20;99.90;;;;;;5075754;28;20048;-72
2023/04/01 09:58:10;;;;;;;17.50;15.80;;;11.20;99.90;;;;;;5091481;27;21043;-73
2023/04/01 10:01:12;;;;;;;16.67;15.07;;;11.20;99.90;;;;;;5056398;28;20125;-73
2023/04/01 10:04:10;;;;;;;16.65;15.05;;;11.20;99.90;;;;;;5077307;28;20048;-72
2023/04/01 10:07:10;;;;;;;16.60;15.00;;;11.20;99.90;;;;;;5048384;28;20047;-72
2023/04/01 10:10:01;;;;;;;17.20;15.60;;;11.20;99.90;;;;;;5074336;28;20086;-72
2023/04/01 10:12:41;;;;;;;17.45;15.75;;;11.20;99.90;;;;;;5063710;28;20099;-72
2023/04/01 10:15:32;;;;;;;15.98;14.48;;;11.30;99.90;;;;;;5060270;28;20904;-72
2023/04/01 10:18:38;;;;;;;17.17;15.40;;;11.30;99.90;;;;;;5076949;28;20048;-73
2023/04/01 10:21:17;;;;;;;18.70;16.80;;;11.30;99.90;;;;;;5061083;28;20080;-73
2023/04/01 10:24:11;;;;;;;18.05;16.35;;;11.30;99.90;;;;;;5093193;27;20466;-73
2023/04/01 10:27:04;;;;;;;17.45;15.75;;;11.40;99.90;;;;;;5075267;28;20139;-73
2023/04/01 10:29:42;;;;;;;18.20;16.42;;;11.40;99.90;;;;;;5078043;28;20071;-72
2023/04/01 10:32:45;;;;;;;14.85;13.35;;;11.40;99.90;;;;;;5062057;28;20563;-72
2023/04/01 10:35:40;;;;;;;12.63;11.43;;;11.40;99.90;;;;;;5062596;28;20162;-72
2023/04/01 10:38:09;;;;;;;9.55;8.65;;;11.40;99.90;;;;;;5094597;27;20510;-72
2023/04/01 10:41:09;;;;;;;8.32;7.53;;;11.40;99.90;;;;;;5076615;28;20126;-73
2023/04/01 10:44:03;;;;;;;8.93;8.02;;;11.30;99.90;;;;;;5062686;28;20060;-72
2023/04/01 10:47:02;;;;;;;8.07;7.28;;;11.20;99.90;;;;;;5079581;28;20456;-72
2023/04/01 10:50:01;;;;;;;8.30;7.50;;;11.10;99.90;;;;;;5073200;28;21389;-72
2023/04/01 10:52:51;;;;;;;8.57;7.50;;;11.00;99.90;;;;;;5080212;28;20044;-72
2023/04/01 10:55:53;;;;;;;9.10;8.20;;;11.00;99.90;;;;;;5076649;28;20147;-72
2023/04/01 10:58:28;;;;;;;9.40;8.50;;;10.90;99.90;;;;;;5077530;28;20040;-72
2023/04/01 11:01:13;;;;;;;9.85;8.85;;;10.80;99.90;;;;;;5062995;28;20048;-72
2023/04/01 11:04:28;;;;;;;9.38;8.27;;;10.80;99.90;;;;;;5078359;28;20422;-73
2023/04/01 11:07:32;;;;;;;10.25;9.35;;;10.70;99.90;;;;;;5080049;28;20051;-72
2023/04/01 11:10:35;;;;;;;10.73;9.65;;;10.60;99.90;;;;;;5091571;27;20044;-72
2023/04/01 11:13:08;;;;;;;9.93;9.00;;;10.50;99.90;;;;;;5063081;28;20438;-72
2023/04/01 11:16:06;;;;;;;9.07;8.18;;;10.60;99.90;;;;;;5099197;27;21283;-72
2023/04/01 11:19:10;;;;;;;9.80;8.85;;;10.60;99.90;;;;;;5050052;28;20052;-73
2023/04/01 11:21:54;;;;;;;9.57;8.68;;;10.50;99.90;;;;;;5077952;28;20067;-73
2023/04/01 11:24:41;;;;;;;10.68;9.68;;;10.50;99.90;;;;;;5083852;28;20147;-73
2023/04/01 11:27:17;;;;;;;10.38;9.38;;;10.40;99.90;;;;;;5079004;28;20130;-71
2023/04/01 11:30:09;;;;;;;10.43;9.38;;;10.40;99.90;;;;;;5072567;28;20589;-72
2023/04/01 11:32:55;;;;;;;9.40;8.50;;;10.40;99.90;;;;;;5082911;28;20078;-73
2023/04/01 11:35:33;;;;;;;9.18;8.27;;;10.30;99.90;;;;;;5083434;28;20063;-73
2023/04/01 11:38:14;;;;;;;8.57;7.68;;;10.30;99.90;;;;;;5074353;28;20101;-73
2023/04/01 11:40:42;;;;;;;7.50;6.40;;;10.30;99.90;;;;;;5081572;28;20291;-73
2023/04/01 11:43:49;;;;;;;6.55;5.95;;;10.30;99.90;;;;;;5082721;28;21311;-72
2023/04/01 11:46:38;;;;;;;6.63;6.03;;;10.30;99.90;;;;;;5048883;28;20047;-72
2023/04/01 11:49:37;;;;;;;6.75;5.95;;;10.20;99.90;;;;;;5097392;27;20093;-73
2023/04/01 11:52:18;;;;;;;7.22;6.53;;;10.20;99.90;;;;;;5074887;28;20051;-73
2023/04/01 11:54:53;;;;;;;6.53;5.93;;;10.20;99.90;;;;;;5062976;28;20552;-73
2023/04/01 11:57:45;;;;;;;7.82;6.38;;;10.20;99.90;;;;;;5099643;27;20624;-74
2023/04/01 12:00:20;;;;;;;6.70;6.10;;;10.20;99.90;;;;;;5067103;28;20062;-73
2023/04/01 12:03:11;;;;;;;6.78;6.13;;;10.20;99.90;;;;;;5079390;28;20047;-74
2023/04/01 12:06:22;;;;;;;6.60;6.00;;;10.10;99.90;;;;;;5076840;28;20382;-75
2023/04/01 12:09:06;;;;;;;7.43;6.55;;;10.10;99.90;;;;;;5078466;28;20078;-75
2023/04/01 12:11:51;;;;;;;7.25;6.55;;;10.20;99.90;;;;;;5076542;28;20039;-72
2023/04/01 12:14:30;;;;;;;6.50;5.90;;;10.20;99.90;;;;;;5075024;28;21675;-73
2023/04/01 12:17:02;;;;;;;6.35;5.70;;;10.20;99.90;;;;;;5074871;28;20058;-72
2023/04/01 12:20:06;;;;;;;6.53;5.93;;;10.10;99.90;;;;;;5077525;28;20143;-73
2023/04/01 12:22:55;;;;;;;6.68;6.07;;;10.10;99.90;;;;;;5064370;28;20120;-73
2023/04/01 12:25:35;;;;;;;6.35;5.78;;;10.10;99.90;;;;;;5074294;28;20079;-73
2023/04/01 12:28:20;;;;;;;;;;;10.10;99.90;;;;;;5079466;28;20052;-73
2023/04/01 12:31:17;;;;;;;7.22;6.43;;;10.10;99.90;;;;;;5059679;28;20302;-73
2023/04/01 12:33:58;;;;;;;7.75;6.93;;;10.10;99.90;;;;;;5077960;28;20043;-72
2023/04/01 12:36:35;;;;;;;8.23;7.43;;;10.10;99.90;;;;;;5093824;27;20631;-73
2023/04/01 12:39:31;;;;;;;8.48;7.68;;;10.10;99.90;;;;;;5092232;27;20052;-72
2023/04/01 12:42:32;;;;;;;9.02;8.23;;;10.10;99.90;;;;;;5080554;28;20059;-72
2023/04/01 12:45:22;;;;;;;8.40;7.60;;;10.10;99.90;;;;;;5097707;27;20039;-74
2023/04/01 12:48:19;;;;;;;8.40;7.63;;;10.10;99.90;;;;;;5097641;27;20087;-73
2023/04/01 12:51:13;;;;;;;8.63;7.70;;;10.10;99.90;;;;;;5080035;28;20047;-73
2023/04/01 12:54:00;;;;;;;7.93;7.22;;;10.10;99.90;;;;;;5082383;28;20441;-73
2023/04/01 12:56:51;;;;;;;6.75;6.15;;;10.10;99.90;;;;;;5081799;28;20127;-74
2023/04/01 12:59:37;;;;;;;6.47;5.88;;;10.20;99.90;;;;;;5064506;28;20517;-74
2023/04/01 13:02:25;;;;;;;7.13;6.50;;;10.10;99.90;;;;;;5051411;28;20599;-74
2023/04/01 13:05:23;;;;;;;6.53;5.90;;;10.20;99.90;;;;;;5082540;28;20051;-73
2023/04/01 13:08:05;;;;;;;6.40;5.80;;;10.10;99.90;;;;;;5081317;28;20804;-73
2023/04/01 13:11:16;;;;;;;6.03;5.43;;;10.10;99.90;;;;;;5083594;28;20722;-73
2023/04/01 13:13:54;;;;;;;7.28;6.60;;;10.10;99.90;;;;;;5091092;27;20088;-72
2023/04/01 13:16:26;;;;;;;7.50;6.80;;;10.00;99.90;;;;;;5077842;28;20844;-72
2023/04/01 13:18:59;;;;;;;7.70;7.00;;;9.90;99.90;;;;;;5080247;28;20072;-72
2023/04/01 13:22:11;;;;;;;8.25;7.32;;;9.90;99.90;;;;;;5064445;28;20052;-73
2023/04/01 13:25:09;;;;;;;7.70;7.00;;;9.80;99.90;;;;;;5042650;28;20082;-73
2023/04/01 13:27:45;;;;;;;7.22;6.63;;;9.80;99.90;;;;;;5060101;28;20163;-72
2023/04/01 13:30:30;;;;;;;7.10;6.50;;;9.80;99.90;;;;;;5073999;28;20067;-72
2023/04/01 13:33:03;;;;;;;7.35;6.72;;;9.70;99.90;;;;;;5083224;28;20043;-72